FWV007 VABB-OMDB
Flight info
| Callsign | FWV007 |
|---|---|
| Flight time | N/A |
| Altitude | 34000 |
| Route | RAXET2A SAKUN V2 SUGID N571 VUSET A454 PASOV B540 MIVEK P574 IMPED |
| Aircraft | A320/M-SDE3FGHIRWY/LB1 |
Departure
| Time | 2026-04-30 14:40 |
|---|---|
| Airport | Chhatrapati Shivaji Maharaj International Airport (VABB) |
Arrival
| Time | N/A |
|---|---|
| Airport | Dubai International Airport (OMDB) |
| Time | Latitude | Longitude | Altitude | Speed | Heading |
|---|---|---|---|---|---|
| 2026-04-30 13:58 | 19.09305 | 72.86805 | 33 ft | 0 kts | 220° |
| 2026-04-30 14:29 | 19.09334 | 72.86828 | 30 ft | 4 kts | 210° |
| 2026-04-30 14:30 | 19.09402 | 72.86841 | 31 ft | 0 kts | 137° |
| 2026-04-30 14:33 | 19.09388 | 72.86854 | 31 ft | 5 kts | 137° |
| 2026-04-30 14:34 | 19.09352 | 72.86890 | 33 ft | 9 kts | 136° |
| 2026-04-30 14:34 | 19.09296 | 72.86947 | 33 ft | 12 kts | 136° |
| 2026-04-30 14:34 | 19.09247 | 72.87002 | 32 ft | 8 kts | 126° |
| 2026-04-30 14:34 | 19.09235 | 72.87050 | 33 ft | 6 kts | 95° |
| 2026-04-30 14:35 | 19.09236 | 72.87163 | 33 ft | 8 kts | 89° |
| 2026-04-30 14:35 | 19.09237 | 72.87215 | 33 ft | 6 kts | 89° |
| 2026-04-30 14:35 | 19.09219 | 72.87250 | 33 ft | 6 kts | 146° |
| 2026-04-30 14:36 | 19.09167 | 72.87261 | 33 ft | 10 kts | 178° |
| 2026-04-30 14:36 | 19.09093 | 72.87266 | 33 ft | 11 kts | 167° |
| 2026-04-30 14:36 | 19.09053 | 72.87309 | 31 ft | 7 kts | 104° |
| 2026-04-30 14:36 | 19.09053 | 72.87352 | 33 ft | 5 kts | 90° |
| 2026-04-30 14:37 | 19.09052 | 72.87385 | 33 ft | 4 kts | 91° |
| 2026-04-30 14:37 | 19.09050 | 72.87420 | 33 ft | 6 kts | 105° |
| 2026-04-30 14:37 | 19.09011 | 72.87452 | 32 ft | 6 kts | 168° |
| 2026-04-30 14:37 | 19.08971 | 72.87453 | 32 ft | 5 kts | 180° |
| 2026-04-30 14:38 | 19.08936 | 72.87454 | 32 ft | 5 kts | 180° |
| 2026-04-30 14:38 | 19.08897 | 72.87453 | 31 ft | 5 kts | 185° |
| 2026-04-30 14:38 | 19.08880 | 72.87437 | 32 ft | 3 kts | 240° |
| 2026-04-30 14:38 | 19.08879 | 72.87417 | 32 ft | 4 kts | 272° |
| 2026-04-30 14:39 | 19.08879 | 72.87410 | 32 ft | 0 kts | 272° |
| 2026-04-30 14:39 | 19.08880 | 72.87355 | 33 ft | 34 kts | 269° |
| 2026-04-30 14:39 | 19.08872 | 72.86853 | 33 ft | 101 kts | 269° |
| 2026-04-30 14:40 | 19.08847 | 72.84719 | 477 ft | 160 kts | 268° |
| 2026-04-30 14:40 | 19.08842 | 72.83544 | 1146 ft | 159 kts | 269° |
| 2026-04-30 14:40 | 19.08825 | 72.82373 | 1810 ft | 161 kts | 268° |
| 2026-04-30 14:40 | 19.08805 | 72.81132 | 2164 ft | 179 kts | 269° |
| 2026-04-30 14:41 | 19.08784 | 72.79737 | 2379 ft | 201 kts | 270° |
| 2026-04-30 14:41 | 19.08916 | 72.78182 | 2565 ft | 225 kts | 278° |
| 2026-04-30 14:41 | 19.09151 | 72.76457 | 2852 ft | 248 kts | 279° |
| 2026-04-30 14:41 | 19.09421 | 72.74640 | 3425 ft | 257 kts | 280° |
| 2026-04-30 14:42 | 19.09703 | 72.72765 | 4167 ft | 259 kts | 280° |
| 2026-04-30 14:42 | 19.09984 | 72.70869 | 4907 ft | 262 kts | 280° |
| 2026-04-30 14:42 | 19.10264 | 72.68961 | 5639 ft | 263 kts | 279° |
| 2026-04-30 14:42 | 19.10541 | 72.67051 | 6382 ft | 263 kts | 279° |
| 2026-04-30 14:43 | 19.10821 | 72.65131 | 7063 ft | 265 kts | 279° |
| 2026-04-30 14:43 | 19.11103 | 72.63188 | 7710 ft | 269 kts | 279° |
| 2026-04-30 14:43 | 19.11383 | 72.61245 | 8340 ft | 273 kts | 279° |
| 2026-04-30 14:43 | 19.11669 | 72.59246 | 8979 ft | 277 kts | 279° |
| 2026-04-30 14:44 | 19.11959 | 72.57216 | 9608 ft | 281 kts | 279° |
| 2026-04-30 14:44 | 19.12255 | 72.55147 | 10080 ft | 291 kts | 279° |
| 2026-04-30 14:44 | 19.12570 | 72.52936 | 10208 ft | 314 kts | 279° |
| 2026-04-30 14:44 | 19.12902 | 72.50610 | 10323 ft | 334 kts | 279° |
| 2026-04-30 14:45 | 19.13257 | 72.48134 | 10635 ft | 345 kts | 279° |
| 2026-04-30 14:45 | 19.13619 | 72.45606 | 11139 ft | 350 kts | 279° |
| 2026-04-30 14:45 | 19.13983 | 72.43052 | 11675 ft | 353 kts | 279° |
| 2026-04-30 14:45 | 19.14348 | 72.40479 | 12209 ft | 356 kts | 279° |
| 2026-04-30 14:46 | 19.14717 | 72.37867 | 12747 ft | 360 kts | 279° |
| 2026-04-30 14:46 | 19.15086 | 72.35235 | 13292 ft | 363 kts | 279° |
| 2026-04-30 14:46 | 19.15460 | 72.32584 | 13810 ft | 366 kts | 279° |
| 2026-04-30 14:46 | 19.15836 | 72.29909 | 14294 ft | 369 kts | 279° |
| 2026-04-30 14:47 | 19.16211 | 72.27251 | 14756 ft | 372 kts | 279° |
| 2026-04-30 14:47 | 19.16595 | 72.24537 | 15230 ft | 375 kts | 280° |
| 2026-04-30 14:47 | 19.16984 | 72.21798 | 15683 ft | 378 kts | 280° |
| 2026-04-30 14:47 | 19.17377 | 72.19035 | 16143 ft | 381 kts | 280° |
| 2026-04-30 14:48 | 19.17770 | 72.16252 | 16604 ft | 384 kts | 280° |
| 2026-04-30 14:48 | 19.18163 | 72.13445 | 17074 ft | 387 kts | 280° |
| 2026-04-30 14:48 | 19.18559 | 72.10623 | 17542 ft | 389 kts | 280° |
| 2026-04-30 14:48 | 19.18957 | 72.07783 | 17995 ft | 392 kts | 281° |
| 2026-04-30 14:49 | 19.19354 | 72.04958 | 18392 ft | 395 kts | 281° |
| 2026-04-30 14:49 | 19.19754 | 72.02080 | 18780 ft | 397 kts | 281° |
| 2026-04-30 14:49 | 19.20154 | 71.99186 | 19194 ft | 398 kts | 281° |
| 2026-04-30 14:49 | 19.20558 | 71.96282 | 19607 ft | 400 kts | 281° |
| 2026-04-30 14:50 | 19.21372 | 71.90440 | 20424 ft | 403 kts | 281° |
| 2026-04-30 14:50 | 19.21783 | 71.87502 | 20828 ft | 405 kts | 281° |
| 2026-04-30 14:51 | 19.22613 | 71.81595 | 21639 ft | 407 kts | 282° |
| 2026-04-30 14:51 | 19.23025 | 71.78668 | 22034 ft | 409 kts | 282° |
| 2026-04-30 14:51 | 19.23854 | 71.72691 | 22816 ft | 412 kts | 282° |
| 2026-04-30 14:52 | 19.24267 | 71.69682 | 23206 ft | 414 kts | 282° |
| 2026-04-30 14:52 | 19.25092 | 71.63628 | 23841 ft | 418 kts | 282° |
| 2026-04-30 14:52 | 19.25509 | 71.60577 | 24118 ft | 420 kts | 281° |
| 2026-04-30 14:53 | 19.26342 | 71.54469 | 24641 ft | 425 kts | 281° |
| 2026-04-30 14:53 | 19.26769 | 71.51368 | 24889 ft | 427 kts | 281° |
| 2026-04-30 14:54 | 19.27630 | 71.45118 | 25384 ft | 431 kts | 281° |
| 2026-04-30 14:54 | 19.28496 | 71.38804 | 25890 ft | 436 kts | 281° |
| 2026-04-30 14:55 | 19.29370 | 71.32429 | 26396 ft | 440 kts | 281° |
| 2026-04-30 14:55 | 19.29804 | 71.29220 | 26639 ft | 442 kts | 281° |
| 2026-04-30 14:55 | 19.30663 | 71.22798 | 27103 ft | 445 kts | 281° |
| 2026-04-30 14:56 | 19.31539 | 71.16281 | 27544 ft | 449 kts | 281° |
| 2026-04-30 14:56 | 19.32428 | 71.09706 | 27960 ft | 453 kts | 281° |
| 2026-04-30 14:57 | 19.32874 | 71.06399 | 28160 ft | 454 kts | 280° |
| 2026-04-30 14:57 | 19.33765 | 70.99752 | 28547 ft | 458 kts | 280° |
| 2026-04-30 14:58 | 19.34656 | 70.93101 | 28918 ft | 461 kts | 280° |
| 2026-04-30 14:58 | 19.35103 | 70.89733 | 29095 ft | 463 kts | 280° |
| 2026-04-30 14:58 | 19.36003 | 70.82958 | 29416 ft | 467 kts | 280° |
| 2026-04-30 14:59 | 19.36906 | 70.76156 | 29905 ft | 466 kts | 280° |
| 2026-04-30 15:00 | 19.38257 | 70.66010 | 30566 ft | 465 kts | 280° |
| 2026-04-30 15:00 | 19.39156 | 70.59236 | 31026 ft | 464 kts | 279° |
| 2026-04-30 15:01 | 19.40047 | 70.52486 | 31517 ft | 462 kts | 279° |
| 2026-04-30 15:01 | 19.40488 | 70.49117 | 31731 ft | 462 kts | 279° |
| 2026-04-30 15:01 | 19.41364 | 70.42384 | 32186 ft | 461 kts | 279° |
| 2026-04-30 15:02 | 19.41803 | 70.39026 | 32442 ft | 460 kts | 279° |
| 2026-04-30 15:02 | 19.42239 | 70.35674 | 32697 ft | 459 kts | 279° |
| 2026-04-30 15:03 | 19.43533 | 70.25702 | 33464 ft | 456 kts | 279° |
| 2026-04-30 15:03 | 19.44397 | 70.19050 | 33829 ft | 455 kts | 279° |
| 2026-04-30 15:04 | 19.46536 | 70.02471 | 33854 ft | 454 kts | 278° |
| 2026-04-30 15:06 | 19.48656 | 69.85944 | 33852 ft | 454 kts | 278° |
| 2026-04-30 15:07 | 19.50337 | 69.72722 | 33854 ft | 454 kts | 278° |
| 2026-04-30 15:08 | 19.52015 | 69.59449 | 33856 ft | 454 kts | 278° |
| 2026-04-30 15:09 | 19.54086 | 69.42891 | 33852 ft | 455 kts | 278° |
| 2026-04-30 15:10 | 19.57438 | 69.30107 | 33866 ft | 453 kts | 297° |
| 2026-04-30 15:11 | 19.66010 | 69.12254 | 33862 ft | 453 kts | 296° |
| 2026-04-30 15:13 | 19.73170 | 68.97334 | 33847 ft | 454 kts | 296° |
| 2026-04-30 15:14 | 19.83157 | 68.76446 | 33850 ft | 454 kts | 296° |
| 2026-04-30 15:17 | 19.95956 | 68.49539 | 33851 ft | 454 kts | 296° |
| 2026-04-30 15:19 | 20.07304 | 68.25570 | 33854 ft | 454 kts | 296° |